Montour, Iowa
Current Conditions -  °F | °C
As of 4:53 PM on Wednesday 17 Dec 2014 (Local Time) from KMIW Reporting Station
Clear Clear  
Wind Chill: 16°   Ceiling: Unl
Heat Index: 22°   Visibility: 10mi
Dew Point: 16°   Wind: 5mph
Humidity: 78%   Direction: 320°NW
Pressure: 30.28"   Gusts: NA
Location:  41.98°N, 92.71°W
Report Text: KMIW 172253Z AUTO 32004KT 10SM CLR M06/M09 A3028 RMK AO2 SLP271 T10561089
Loading
Personal Weather Stations






























Interactive Weather Map New forecast layout! Learn more

10-Day Weather Forecast

Advertisements
Track Severe Weather on mobile